sensor_id;sensor_type;location;lat;lon;timestamp;P1;durP1;ratioP1;P2;durP2;ratioP2
48623;SDS011;34422;45.802;16.114;2022-09-27T00:01:09;48.25;;;21.48;;
48623;SDS011;34422;45.802;16.114;2022-09-27T00:03:38;32.65;;;20.35;;
48623;SDS011;34422;45.802;16.114;2022-09-27T00:06:15;32.95;;;19.95;;
48623;SDS011;34422;45.802;16.114;2022-09-27T00:08:48;28.25;;;18.88;;
48623;SDS011;34422;45.802;16.114;2022-09-27T00:11:49;42.72;;;21.65;;
48623;SDS011;34422;45.802;16.114;2022-09-27T00:14:12;49.88;;;22.33;;
48623;SDS011;34422;45.802;16.114;2022-09-27T00:16:43;48.30;;;23.05;;
48623;SDS011;34422;45.802;16.114;2022-09-27T00:19:13;45.25;;;22.42;;
48623;SDS011;34422;45.802;16.114;2022-09-27T00:21:42;49.38;;;23.90;;
48623;SDS011;34422;45.802;16.114;2022-09-27T00:24:11;65.20;;;25.10;;
48623;SDS011;34422;45.802;16.114;2022-09-27T00:26:41;46.22;;;23.67;;
48623;SDS011;34422;45.802;16.114;2022-09-27T00:29:09;31.65;;;19.35;;
48623;SDS011;34422;45.802;16.114;2022-09-27T00:31:37;49.38;;;23.63;;
48623;SDS011;34422;45.802;16.114;2022-09-27T00:34:05;49.00;;;22.92;;
48623;SDS011;34422;45.802;16.114;2022-09-27T00:36:36;33.42;;;21.15;;
48623;SDS011;34422;45.802;16.114;2022-09-27T00:39:03;52.72;;;23.08;;
48623;SDS011;34422;45.802;16.114;2022-09-27T00:41:32;39.17;;;23.35;;
48623;SDS011;34422;45.802;16.114;2022-09-27T00:44:01;76.03;;;25.45;;
48623;SDS011;34422;45.802;16.114;2022-09-27T00:46:58;55.50;;;22.13;;
48623;SDS011;34422;45.802;16.114;2022-09-27T00:49:30;69.15;;;25.55;;
48623;SDS011;34422;45.802;16.114;2022-09-27T00:52:02;43.08;;;23.50;;
48623;SDS011;34422;45.802;16.114;2022-09-27T00:54:33;40.63;;;22.15;;
48623;SDS011;34422;45.802;16.114;2022-09-27T00:57:04;34.33;;;20.92;;
48623;SDS011;34422;45.802;16.114;2022-09-27T00:59:32;56.92;;;23.50;;
48623;SDS011;34422;45.802;16.114;2022-09-27T01:02:04;79.53;;;25.17;;
48623;SDS011;34422;45.802;16.114;2022-09-27T01:04:33;52.03;;;22.40;;
48623;SDS011;34422;45.802;16.114;2022-09-27T01:07:04;35.60;;;21.90;;
48623;SDS011;34422;45.802;16.114;2022-09-27T01:09:31;41.63;;;20.13;;
48623;SDS011;34422;45.802;16.114;2022-09-27T01:26:15;31.65;;;17.73;;
48623;SDS011;34422;45.802;16.114;2022-09-27T01:31:33;26.92;;;14.95;;
48623;SDS011;34422;45.802;16.114;2022-09-27T01:37:09;40.20;;;16.65;;
48623;SDS011;34422;45.802;16.114;2022-09-27T01:42:32;29.35;;;17.75;;
48623;SDS011;34422;45.802;16.114;2022-09-27T01:45:03;30.60;;;17.90;;
48623;SDS011;34422;45.802;16.114;2022-09-27T01:50:40;45.22;;;21.10;;
48623;SDS011;34422;45.802;16.114;2022-09-27T01:53:12;57.20;;;23.20;;
48623;SDS011;34422;45.802;16.114;2022-09-27T01:55:45;54.17;;;23.42;;
48623;SDS011;34422;45.802;16.114;2022-09-27T01:58:20;74.97;;;25.15;;
48623;SDS011;34422;45.802;16.114;2022-09-27T02:00:54;54.60;;;21.45;;
48623;SDS011;34422;45.802;16.114;2022-09-27T02:03:24;53.22;;;18.60;;
48623;SDS011;34422;45.802;16.114;2022-09-27T02:05:56;30.50;;;16.05;;
48623;SDS011;34422;45.802;16.114;2022-09-27T02:08:35;38.08;;;14.98;;
48623;SDS011;34422;45.802;16.114;2022-09-27T02:11:09;37.95;;;15.13;;
48623;SDS011;34422;45.802;16.114;2022-09-27T02:21:55;27.25;;;12.30;;
48623;SDS011;34422;45.802;16.114;2022-09-27T02:24:59;27.85;;;11.70;;
48623;SDS011;34422;45.802;16.114;2022-09-27T02:30:27;17.88;;;10.13;;
48623;SDS011;34422;45.802;16.114;2022-09-27T02:32:54;18.95;;;10.52;;
48623;SDS011;34422;45.802;16.114;2022-09-27T02:35:23;19.30;;;10.18;;
48623;SDS011;34422;45.802;16.114;2022-09-27T02:38:02;21.15;;;11.15;;
48623;SDS011;34422;45.802;16.114;2022-09-27T02:40:33;24.58;;;11.23;;
48623;SDS011;34422;45.802;16.114;2022-09-27T02:43:07;21.38;;;11.15;;
48623;SDS011;34422;45.802;16.114;2022-09-27T02:45:38;21.98;;;10.75;;
48623;SDS011;34422;45.802;16.114;2022-09-27T02:48:30;24.85;;;10.40;;
48623;SDS011;34422;45.802;16.114;2022-09-27T02:56:49;19.13;;;10.00;;
48623;SDS011;34422;45.802;16.114;2022-09-27T02:59:47;26.33;;;11.68;;
48623;SDS011;34422;45.802;16.114;2022-09-27T03:02:32;17.88;;;10.05;;
48623;SDS011;34422;45.802;16.114;2022-09-27T03:05:19;30.08;;;10.75;;
48623;SDS011;34422;45.802;16.114;2022-09-27T03:07:48;15.68;;;9.35;;
48623;SDS011;34422;45.802;16.114;2022-09-27T03:10:16;17.13;;;10.52;;
48623;SDS011;34422;45.802;16.114;2022-09-27T03:12:46;16.77;;;8.65;;
48623;SDS011;34422;45.802;16.114;2022-09-27T03:15:13;16.20;;;9.05;;
48623;SDS011;34422;45.802;16.114;2022-09-27T03:17:40;30.20;;;10.15;;
48623;SDS011;34422;45.802;16.114;2022-09-27T03:20:08;50.22;;;10.90;;
48623;SDS011;34422;45.802;16.114;2022-09-27T03:22:35;16.55;;;9.27;;
48623;SDS011;34422;45.802;16.114;2022-09-27T03:25:04;20.75;;;9.48;;
48623;SDS011;34422;45.802;16.114;2022-09-27T03:27:32;15.50;;;9.13;;
48623;SDS011;34422;45.802;16.114;2022-09-27T03:29:59;20.67;;;8.88;;
48623;SDS011;34422;45.802;16.114;2022-09-27T03:32:26;27.83;;;10.60;;
48623;SDS011;34422;45.802;16.114;2022-09-27T03:34:54;23.75;;;10.32;;
48623;SDS011;34422;45.802;16.114;2022-09-27T03:37:21;14.50;;;9.18;;
48623;SDS011;34422;45.802;16.114;2022-09-27T03:39:48;16.60;;;9.63;;
48623;SDS011;34422;45.802;16.114;2022-09-27T03:42:15;17.08;;;10.13;;
48623;SDS011;34422;45.802;16.114;2022-09-27T03:44:43;44.85;;;11.00;;
48623;SDS011;34422;45.802;16.114;2022-09-27T03:47:10;66.82;;;12.27;;
48623;SDS011;34422;45.802;16.114;2022-09-27T03:49:37;39.75;;;10.60;;
48623;SDS011;34422;45.802;16.114;2022-09-27T03:52:04;49.17;;;11.93;;
48623;SDS011;34422;45.802;16.114;2022-09-27T03:54:32;92.75;;;13.30;;
48623;SDS011;34422;45.802;16.114;2022-09-27T03:56:59;17.67;;;9.07;;
48623;SDS011;34422;45.802;16.114;2022-09-27T03:59:26;24.13;;;9.20;;
48623;SDS011;34422;45.802;16.114;2022-09-27T04:01:53;19.75;;;9.50;;
48623;SDS011;34422;45.802;16.114;2022-09-27T04:04:22;15.43;;;8.77;;
48623;SDS011;34422;45.802;16.114;2022-09-27T04:06:49;87.28;;;14.20;;
48623;SDS011;34422;45.802;16.114;2022-09-27T04:09:16;64.00;;;10.85;;
48623;SDS011;34422;45.802;16.114;2022-09-27T04:11:44;14.48;;;8.75;;
48623;SDS011;34422;45.802;16.114;2022-09-27T04:14:11;18.00;;;9.25;;
48623;SDS011;34422;45.802;16.114;2022-09-27T04:16:38;14.73;;;7.72;;
48623;SDS011;34422;45.802;16.114;2022-09-27T04:19:06;25.98;;;9.05;;
48623;SDS011;34422;45.802;16.114;2022-09-27T04:21:34;19.30;;;8.60;;
48623;SDS011;34422;45.802;16.114;2022-09-27T04:24:01;107.95;;;13.38;;
48623;SDS011;34422;45.802;16.114;2022-09-27T04:26:28;73.75;;;40.47;;
48623;SDS011;34422;45.802;16.114;2022-09-27T04:28:55;59.70;;;15.48;;
48623;SDS011;34422;45.802;16.114;2022-09-27T04:31:23;45.13;;;33.25;;
48623;SDS011;34422;45.802;16.114;2022-09-27T04:33:50;134.68;;;90.32;;
48623;SDS011;34422;45.802;16.114;2022-09-27T04:36:18;52.65;;;16.77;;
48623;SDS011;34422;45.802;16.114;2022-09-27T04:38:52;56.67;;;23.38;;
48623;SDS011;34422;45.802;16.114;2022-09-27T04:41:21;231.48;;;133.68;;
48623;SDS011;34422;45.802;16.114;2022-09-27T04:43:50;75.82;;;24.27;;
48623;SDS011;34422;45.802;16.114;2022-09-27T04:46:17;110.90;;;20.13;;
48623;SDS011;34422;45.802;16.114;2022-09-27T04:48:46;59.78;;;14.20;;
48623;SDS011;34422;45.802;16.114;2022-09-27T04:51:14;113.63;;;56.78;;
48623;SDS011;34422;45.802;16.114;2022-09-27T04:53:43;45.72;;;17.48;;
48623;SDS011;34422;45.802;16.114;2022-09-27T04:56:11;47.30;;;14.35;;
48623;SDS011;34422;45.802;16.114;2022-09-27T04:58:39;34.35;;;11.80;;
48623;SDS011;34422;45.802;16.114;2022-09-27T05:01:06;30.45;;;11.27;;
48623;SDS011;34422;45.802;16.114;2022-09-27T05:03:36;21.38;;;10.18;;
48623;SDS011;34422;45.802;16.114;2022-09-27T05:06:03;15.75;;;9.20;;
48623;SDS011;34422;45.802;16.114;2022-09-27T05:08:31;46.65;;;11.95;;
48623;SDS011;34422;45.802;16.114;2022-09-27T05:10:58;58.20;;;11.95;;
48623;SDS011;34422;45.802;16.114;2022-09-27T05:13:25;80.45;;;13.60;;
48623;SDS011;34422;45.802;16.114;2022-09-27T05:15:52;121.70;;;15.32;;
48623;SDS011;34422;45.802;16.114;2022-09-27T05:18:20;14.60;;;7.97;;
48623;SDS011;34422;45.802;16.114;2022-09-27T05:20:47;36.70;;;10.32;;
48623;SDS011;34422;45.802;16.114;2022-09-27T05:23:14;18.75;;;8.50;;
48623;SDS011;34422;45.802;16.114;2022-09-27T05:25:41;65.72;;;11.65;;
48623;SDS011;34422;45.802;16.114;2022-09-27T05:28:08;43.42;;;11.85;;
48623;SDS011;34422;45.802;16.114;2022-09-27T05:30:36;38.38;;;11.35;;
48623;SDS011;34422;45.802;16.114;2022-09-27T05:33:03;74.38;;;15.65;;
48623;SDS011;34422;45.802;16.114;2022-09-27T05:35:30;54.15;;;10.35;;
48623;SDS011;34422;45.802;16.114;2022-09-27T05:37:59;38.00;;;8.45;;
48623;SDS011;34422;45.802;16.114;2022-09-27T05:40:27;46.92;;;9.32;;
48623;SDS011;34422;45.802;16.114;2022-09-27T05:42:54;66.20;;;11.60;;
48623;SDS011;34422;45.802;16.114;2022-09-27T05:45:22;27.33;;;8.85;;
48623;SDS011;34422;45.802;16.114;2022-09-27T05:47:57;22.42;;;8.60;;
48623;SDS011;34422;45.802;16.114;2022-09-27T05:50:24;17.27;;;9.25;;
48623;SDS011;34422;45.802;16.114;2022-09-27T05:52:53;32.50;;;9.38;;
48623;SDS011;34422;45.802;16.114;2022-09-27T05:55:20;17.75;;;9.02;;
48623;SDS011;34422;45.802;16.114;2022-09-27T05:58:01;26.10;;;9.98;;
48623;SDS011;34422;45.802;16.114;2022-09-27T06:00:33;18.98;;;8.70;;
48623;SDS011;34422;45.802;16.114;2022-09-27T06:03:02;27.02;;;10.50;;
48623;SDS011;34422;45.802;16.114;2022-09-27T06:05:35;15.93;;;9.85;;
48623;SDS011;34422;45.802;16.114;2022-09-27T06:08:05;14.50;;;9.60;;
48623;SDS011;34422;45.802;16.114;2022-09-27T06:10:35;18.73;;;10.70;;
48623;SDS011;34422;45.802;16.114;2022-09-27T06:13:06;13.13;;;8.75;;
48623;SDS011;34422;45.802;16.114;2022-09-27T06:15:37;14.07;;;8.63;;
48623;SDS011;34422;45.802;16.114;2022-09-27T06:18:09;16.15;;;10.18;;
48623;SDS011;34422;45.802;16.114;2022-09-27T06:20:38;16.92;;;10.48;;
48623;SDS011;34422;45.802;16.114;2022-09-27T06:23:10;16.30;;;9.75;;
48623;SDS011;34422;45.802;16.114;2022-09-27T06:25:38;14.95;;;8.95;;
48623;SDS011;34422;45.802;16.114;2022-09-27T06:28:07;13.70;;;8.65;;
48623;SDS011;34422;45.802;16.114;2022-09-27T06:30:45;12.15;;;8.77;;
48623;SDS011;34422;45.802;16.114;2022-09-27T06:33:17;12.70;;;9.15;;
48623;SDS011;34422;45.802;16.114;2022-09-27T06:35:46;14.90;;;8.90;;
48623;SDS011;34422;45.802;16.114;2022-09-27T06:38:16;12.30;;;9.32;;
48623;SDS011;34422;45.802;16.114;2022-09-27T06:40:44;12.82;;;9.50;;
48623;SDS011;34422;45.802;16.114;2022-09-27T06:43:13;12.10;;;8.70;;
48623;SDS011;34422;45.802;16.114;2022-09-27T06:45:42;13.68;;;9.20;;
48623;SDS011;34422;45.802;16.114;2022-09-27T06:48:10;13.73;;;8.50;;
48623;SDS011;34422;45.802;16.114;2022-09-27T06:50:40;14.63;;;8.82;;
48623;SDS011;34422;45.802;16.114;2022-09-27T06:53:10;12.75;;;9.43;;
48623;SDS011;34422;45.802;16.114;2022-09-27T06:55:42;13.57;;;9.82;;
48623;SDS011;34422;45.802;16.114;2022-09-27T06:58:10;12.35;;;8.38;;
48623;SDS011;34422;45.802;16.114;2022-09-27T07:00:56;13.48;;;9.60;;
48623;SDS011;34422;45.802;16.114;2022-09-27T07:03:24;13.10;;;9.23;;
48623;SDS011;34422;45.802;16.114;2022-09-27T07:05:59;11.70;;;8.55;;
48623;SDS011;34422;45.802;16.114;2022-09-27T07:08:28;11.27;;;7.70;;
48623;SDS011;34422;45.802;16.114;2022-09-27T07:11:00;12.93;;;8.40;;
48623;SDS011;34422;45.802;16.114;2022-09-27T07:13:28;11.90;;;8.38;;
48623;SDS011;34422;45.802;16.114;2022-09-27T07:15:58;12.32;;;8.48;;
48623;SDS011;34422;45.802;16.114;2022-09-27T07:18:26;12.07;;;7.82;;
48623;SDS011;34422;45.802;16.114;2022-09-27T07:20:53;10.10;;;7.72;;
48623;SDS011;34422;45.802;16.114;2022-09-27T07:23:21;12.27;;;8.73;;
48623;SDS011;34422;45.802;16.114;2022-09-27T07:25:48;10.02;;;7.32;;
48623;SDS011;34422;45.802;16.114;2022-09-27T07:28:17;10.13;;;6.80;;
48623;SDS011;34422;45.802;16.114;2022-09-27T07:30:45;10.43;;;7.65;;
48623;SDS011;34422;45.802;16.114;2022-09-27T07:33:12;9.95;;;7.20;;
48623;SDS011;34422;45.802;16.114;2022-09-27T07:35:39;10.80;;;7.68;;
48623;SDS011;34422;45.802;16.114;2022-09-27T07:38:08;10.93;;;7.60;;
48623;SDS011;34422;45.802;16.114;2022-09-27T07:40:39;9.40;;;6.80;;
48623;SDS011;34422;45.802;16.114;2022-09-27T07:43:07;9.25;;;6.75;;
48623;SDS011;34422;45.802;16.114;2022-09-27T07:45:35;10.43;;;6.97;;
48623;SDS011;34422;45.802;16.114;2022-09-27T07:48:04;11.02;;;7.13;;
48623;SDS011;34422;45.802;16.114;2022-09-27T07:50:32;9.70;;;6.93;;
48623;SDS011;34422;45.802;16.114;2022-09-27T07:52:59;9.30;;;6.88;;
48623;SDS011;34422;45.802;16.114;2022-09-27T07:55:27;8.32;;;6.03;;
48623;SDS011;34422;45.802;16.114;2022-09-27T07:58:00;10.27;;;7.47;;
48623;SDS011;34422;45.802;16.114;2022-09-27T08:00:31;10.65;;;7.25;;
48623;SDS011;34422;45.802;16.114;2022-09-27T08:03:02;9.65;;;7.30;;
48623;SDS011;34422;45.802;16.114;2022-09-27T08:05:31;15.40;;;9.38;;
48623;SDS011;34422;45.802;16.114;2022-09-27T08:08:03;10.90;;;7.28;;
48623;SDS011;34422;45.802;16.114;2022-09-27T08:10:31;8.63;;;6.03;;
48623;SDS011;34422;45.802;16.114;2022-09-27T08:13:00;8.80;;;6.32;;
48623;SDS011;34422;45.802;16.114;2022-09-27T08:15:32;10.45;;;7.03;;
48623;SDS011;34422;45.802;16.114;2022-09-27T08:18:02;8.27;;;6.10;;
48623;SDS011;34422;45.802;16.114;2022-09-27T08:20:30;8.20;;;5.85;;
48623;SDS011;34422;45.802;16.114;2022-09-27T08:22:57;9.00;;;5.70;;
48623;SDS011;34422;45.802;16.114;2022-09-27T08:25:24;8.07;;;5.63;;
48623;SDS011;34422;45.802;16.114;2022-09-27T08:27:57;8.40;;;4.75;;
48623;SDS011;34422;45.802;16.114;2022-09-27T08:30:25;6.43;;;4.53;;
48623;SDS011;34422;45.802;16.114;2022-09-27T08:32:54;6.97;;;4.47;;
48623;SDS011;34422;45.802;16.114;2022-09-27T08:35:23;6.43;;;4.53;;
48623;SDS011;34422;45.802;16.114;2022-09-27T08:37:56;7.38;;;3.95;;
48623;SDS011;34422;45.802;16.114;2022-09-27T08:41:08;6.45;;;3.67;;
48623;SDS011;34422;45.802;16.114;2022-09-27T08:46:32;8.57;;;4.40;;
48623;SDS011;34422;45.802;16.114;2022-09-27T08:52:03;6.78;;;4.47;;
48623;SDS011;34422;45.802;16.114;2022-09-27T08:57:05;9.80;;;4.97;;
48623;SDS011;34422;45.802;16.114;2022-09-27T08:59:46;8.38;;;4.95;;
48623;SDS011;34422;45.802;16.114;2022-09-27T09:02:20;7.70;;;5.38;;
48623;SDS011;34422;45.802;16.114;2022-09-27T09:35:00;7.88;;;5.97;;
48623;SDS011;34422;45.802;16.114;2022-09-27T09:37:39;9.25;;;6.00;;
48623;SDS011;34422;45.802;16.114;2022-09-27T09:40:21;9.38;;;5.72;;
48623;SDS011;34422;45.802;16.114;2022-09-27T09:45:40;8.63;;;6.80;;
48623;SDS011;34422;45.802;16.114;2022-09-27T09:51:05;7.20;;;5.50;;
48623;SDS011;34422;45.802;16.114;2022-09-27T09:56:46;7.88;;;5.80;;
48623;SDS011;34422;45.802;16.114;2022-09-27T10:04:49;8.82;;;6.35;;
48623;SDS011;34422;45.802;16.114;2022-09-27T10:07:18;9.02;;;6.18;;
48623;SDS011;34422;45.802;16.114;2022-09-27T10:09:50;9.20;;;6.85;;
48623;SDS011;34422;45.802;16.114;2022-09-27T10:12:20;7.18;;;5.10;;
48623;SDS011;34422;45.802;16.114;2022-09-27T10:14:48;12.27;;;5.40;;
48623;SDS011;34422;45.802;16.114;2022-09-27T10:17:18;8.10;;;4.68;;
48623;SDS011;34422;45.802;16.114;2022-09-27T10:19:48;7.38;;;4.38;;
48623;SDS011;34422;45.802;16.114;2022-09-27T10:22:37;7.60;;;5.60;;
48623;SDS011;34422;45.802;16.114;2022-09-27T10:25:08;9.52;;;7.32;;
48623;SDS011;34422;45.802;16.114;2022-09-27T10:27:46;9.07;;;5.20;;
48623;SDS011;34422;45.802;16.114;2022-09-27T10:30:20;11.83;;;5.70;;
48623;SDS011;34422;45.802;16.114;2022-09-27T10:32:55;6.53;;;4.00;;
48623;SDS011;34422;45.802;16.114;2022-09-27T10:41:14;9.32;;;4.30;;
48623;SDS011;34422;45.802;16.114;2022-09-27T10:43:45;6.93;;;4.13;;
48623;SDS011;34422;45.802;16.114;2022-09-27T10:46:18;29.42;;;23.35;;
48623;SDS011;34422;45.802;16.114;2022-09-27T10:49:06;17.27;;;9.80;;
48623;SDS011;34422;45.802;16.114;2022-09-27T10:51:44;8.23;;;4.18;;
48623;SDS011;34422;45.802;16.114;2022-09-27T10:54:26;6.13;;;3.70;;
48623;SDS011;34422;45.802;16.114;2022-09-27T10:59:33;9.35;;;4.35;;
48623;SDS011;34422;45.802;16.114;2022-09-27T11:02:05;8.60;;;4.43;;
48623;SDS011;34422;45.802;16.114;2022-09-27T11:07:50;8.88;;;4.00;;
48623;SDS011;34422;45.802;16.114;2022-09-27T11:32:35;6.40;;;4.05;;
48623;SDS011;34422;45.802;16.114;2022-09-27T11:35:29;7.13;;;3.70;;
48623;SDS011;34422;45.802;16.114;2022-09-27T11:38:10;6.68;;;3.65;;
48623;SDS011;34422;45.802;16.114;2022-09-27T11:41:15;7.15;;;3.55;;
48623;SDS011;34422;45.802;16.114;2022-09-27T11:46:29;7.57;;;3.92;;
48623;SDS011;34422;45.802;16.114;2022-09-27T11:57:11;6.60;;;3.80;;
48623;SDS011;34422;45.802;16.114;2022-09-27T12:13:54;7.53;;;3.90;;
48623;SDS011;34422;45.802;16.114;2022-09-27T12:16:25;5.95;;;3.50;;
48623;SDS011;34422;45.802;16.114;2022-09-27T12:18:54;6.97;;;3.65;;
48623;SDS011;34422;45.802;16.114;2022-09-27T12:21:23;8.55;;;5.40;;
48623;SDS011;34422;45.802;16.114;2022-09-27T12:23:52;8.48;;;4.40;;
48623;SDS011;34422;45.802;16.114;2022-09-27T12:26:27;6.53;;;3.58;;
48623;SDS011;34422;45.802;16.114;2022-09-27T12:29:43;6.38;;;3.78;;
48623;SDS011;34422;45.802;16.114;2022-09-27T12:32:02;5.53;;;3.50;;
48623;SDS011;34422;45.802;16.114;2022-09-27T12:34:41;5.28;;;2.97;;
48623;SDS011;34422;45.802;16.114;2022-09-27T12:40:37;4.75;;;2.63;;
48623;SDS011;34422;45.802;16.114;2022-09-27T12:43:20;7.07;;;3.63;;
48623;SDS011;34422;45.802;16.114;2022-09-27T12:51:13;5.43;;;3.30;;
48623;SDS011;34422;45.802;16.114;2022-09-27T12:58:48;6.47;;;3.75;;
48623;SDS011;34422;45.802;16.114;2022-09-27T13:07:20;6.03;;;3.03;;
48623;SDS011;34422;45.802;16.114;2022-09-27T13:12:30;5.68;;;2.92;;
48623;SDS011;34422;45.802;16.114;2022-09-27T13:15:17;5.45;;;2.65;;
48623;SDS011;34422;45.802;16.114;2022-09-27T13:17:47;5.72;;;2.78;;
48623;SDS011;34422;45.802;16.114;2022-09-27T13:20:36;5.88;;;2.70;;
48623;SDS011;34422;45.802;16.114;2022-09-27T13:25:57;5.60;;;2.97;;
48623;SDS011;34422;45.802;16.114;2022-09-27T13:28:34;7.60;;;2.92;;
48623;SDS011;34422;45.802;16.114;2022-09-27T13:34:40;5.88;;;1.40;;
48623;SDS011;34422;45.802;16.114;2022-09-27T13:37:21;2.45;;;0.70;;
48623;SDS011;34422;45.802;16.114;2022-09-27T13:40:20;5.90;;;0.80;;
48623;SDS011;34422;45.802;16.114;2022-09-27T13:45:21;4.20;;;0.90;;
48623;SDS011;34422;45.802;16.114;2022-09-27T13:47:55;3.08;;;0.63;;
48623;SDS011;34422;45.802;16.114;2022-09-27T13:50:25;1.75;;;0.50;;
48623;SDS011;34422;45.802;16.114;2022-09-27T13:53:00;4.38;;;0.88;;
48623;SDS011;34422;45.802;16.114;2022-09-27T14:03:46;3.08;;;0.85;;
48623;SDS011;34422;45.802;16.114;2022-09-27T14:06:19;2.47;;;0.60;;
48623;SDS011;34422;45.802;16.114;2022-09-27T14:08:49;2.40;;;0.85;;
48623;SDS011;34422;45.802;16.114;2022-09-27T14:11:33;3.20;;;0.70;;
48623;SDS011;34422;45.802;16.114;2022-09-27T14:14:05;3.33;;;0.77;;
48623;SDS011;34422;45.802;16.114;2022-09-27T14:16:40;1.98;;;0.60;;
48623;SDS011;34422;45.802;16.114;2022-09-27T14:19:18;2.60;;;0.52;;
48623;SDS011;34422;45.802;16.114;2022-09-27T14:24:55;2.50;;;0.68;;
48623;SDS011;34422;45.802;16.114;2022-09-27T14:27:24;3.33;;;0.70;;
48623;SDS011;34422;45.802;16.114;2022-09-27T14:29:54;1.58;;;0.43;;
48623;SDS011;34422;45.802;16.114;2022-09-27T14:32:24;1.75;;;0.70;;
48623;SDS011;34422;45.802;16.114;2022-09-27T14:37:31;6.03;;;0.75;;
48623;SDS011;34422;45.802;16.114;2022-09-27T14:40:03;3.30;;;0.70;;
48623;SDS011;34422;45.802;16.114;2022-09-27T14:42:34;2.85;;;0.95;;
48623;SDS011;34422;45.802;16.114;2022-09-27T14:45:04;2.30;;;0.60;;
48623;SDS011;34422;45.802;16.114;2022-09-27T14:47:44;3.60;;;0.55;;
48623;SDS011;34422;45.802;16.114;2022-09-27T14:50:20;1.95;;;0.63;;
48623;SDS011;34422;45.802;16.114;2022-09-27T14:52:50;2.90;;;0.88;;
48623;SDS011;34422;45.802;16.114;2022-09-27T14:55:23;2.67;;;0.80;;
48623;SDS011;34422;45.802;16.114;2022-09-27T14:57:55;2.25;;;0.88;;
48623;SDS011;34422;45.802;16.114;2022-09-27T15:00:26;3.03;;;0.77;;
48623;SDS011;34422;45.802;16.114;2022-09-27T15:02:59;3.05;;;0.63;;
48623;SDS011;34422;45.802;16.114;2022-09-27T15:05:30;2.78;;;0.50;;
48623;SDS011;34422;45.802;16.114;2022-09-27T15:08:01;3.20;;;1.00;;
48623;SDS011;34422;45.802;16.114;2022-09-27T15:10:32;4.50;;;0.65;;
48623;SDS011;34422;45.802;16.114;2022-09-27T15:13:02;3.13;;;0.80;;
48623;SDS011;34422;45.802;16.114;2022-09-27T15:15:34;8.65;;;0.93;;
48623;SDS011;34422;45.802;16.114;2022-09-27T15:18:27;2.97;;;0.82;;
48623;SDS011;34422;45.802;16.114;2022-09-27T15:20:55;2.78;;;0.73;;
48623;SDS011;34422;45.802;16.114;2022-09-27T15:23:26;2.92;;;0.68;;
48623;SDS011;34422;45.802;16.114;2022-09-27T15:25:57;5.15;;;0.90;;
48623;SDS011;34422;45.802;16.114;2022-09-27T15:28:30;2.97;;;0.60;;
48623;SDS011;34422;45.802;16.114;2022-09-27T15:30:59;2.95;;;0.73;;
48623;SDS011;34422;45.802;16.114;2022-09-27T15:33:27;3.88;;;0.65;;
48623;SDS011;34422;45.802;16.114;2022-09-27T15:36:02;1.88;;;0.60;;
48623;SDS011;34422;45.802;16.114;2022-09-27T15:40:59;4.07;;;0.98;;
48623;SDS011;34422;45.802;16.114;2022-09-27T15:45:57;5.43;;;1.15;;
48623;SDS011;34422;45.802;16.114;2022-09-27T15:48:32;5.68;;;1.35;;
48623;SDS011;34422;45.802;16.114;2022-09-27T15:51:03;4.38;;;1.20;;
48623;SDS011;34422;45.802;16.114;2022-09-27T15:54:08;3.60;;;1.30;;
48623;SDS011;34422;45.802;16.114;2022-09-27T15:56:36;4.25;;;1.58;;
48623;SDS011;34422;45.802;16.114;2022-09-27T15:59:26;6.70;;;1.55;;
48623;SDS011;34422;45.802;16.114;2022-09-27T16:01:56;7.05;;;1.25;;
48623;SDS011;34422;45.802;16.114;2022-09-27T16:04:25;4.28;;;1.30;;
48623;SDS011;34422;45.802;16.114;2022-09-27T16:06:53;4.65;;;1.50;;
48623;SDS011;34422;45.802;16.114;2022-09-27T16:09:20;3.63;;;1.50;;
48623;SDS011;34422;45.802;16.114;2022-09-27T16:11:48;4.53;;;1.60;;
48623;SDS011;34422;45.802;16.114;2022-09-27T16:14:16;5.00;;;1.58;;
48623;SDS011;34422;45.802;16.114;2022-09-27T16:16:45;3.67;;;1.40;;
48623;SDS011;34422;45.802;16.114;2022-09-27T16:19:15;7.38;;;3.33;;
48623;SDS011;34422;45.802;16.114;2022-09-27T16:21:42;29.25;;;24.95;;
48623;SDS011;34422;45.802;16.114;2022-09-27T16:24:09;5.40;;;3.17;;
48623;SDS011;34422;45.802;16.114;2022-09-27T16:26:37;6.80;;;4.38;;
48623;SDS011;34422;45.802;16.114;2022-09-27T16:29:10;6.95;;;4.60;;
48623;SDS011;34422;45.802;16.114;2022-09-27T16:31:39;5.30;;;3.45;;
48623;SDS011;34422;45.802;16.114;2022-09-27T16:34:07;9.55;;;2.47;;
48623;SDS011;34422;45.802;16.114;2022-09-27T16:36:35;8.30;;;3.90;;
48623;SDS011;34422;45.802;16.114;2022-09-27T16:39:03;18.27;;;9.18;;
48623;SDS011;34422;45.802;16.114;2022-09-27T16:41:33;8.00;;;3.78;;
48623;SDS011;34422;45.802;16.114;2022-09-27T16:44:05;5.20;;;2.22;;
48623;SDS011;34422;45.802;16.114;2022-09-27T16:46:33;5.47;;;2.53;;
48623;SDS011;34422;45.802;16.114;2022-09-27T16:49:01;5.53;;;2.60;;
48623;SDS011;34422;45.802;16.114;2022-09-27T16:51:28;6.30;;;2.10;;
48623;SDS011;34422;45.802;16.114;2022-09-27T16:54:14;4.80;;;1.73;;
48623;SDS011;34422;45.802;16.114;2022-09-27T16:56:41;4.35;;;1.90;;
48623;SDS011;34422;45.802;16.114;2022-09-27T16:59:17;5.80;;;1.90;;
48623;SDS011;34422;45.802;16.114;2022-09-27T17:01:45;6.50;;;1.70;;
48623;SDS011;34422;45.802;16.114;2022-09-27T17:04:13;3.80;;;1.00;;
48623;SDS011;34422;45.802;16.114;2022-09-27T17:06:40;5.90;;;1.98;;
48623;SDS011;34422;45.802;16.114;2022-09-27T17:09:08;5.53;;;1.15;;
48623;SDS011;34422;45.802;16.114;2022-09-27T17:11:37;4.28;;;1.30;;
48623;SDS011;34422;45.802;16.114;2022-09-27T17:14:04;4.25;;;1.70;;
48623;SDS011;34422;45.802;16.114;2022-09-27T17:16:31;8.55;;;2.92;;
48623;SDS011;34422;45.802;16.114;2022-09-27T17:18:59;25.40;;;10.57;;
48623;SDS011;34422;45.802;16.114;2022-09-27T17:21:26;14.95;;;5.57;;
48623;SDS011;34422;45.802;16.114;2022-09-27T17:23:53;9.45;;;3.50;;
48623;SDS011;34422;45.802;16.114;2022-09-27T17:26:21;11.32;;;3.83;;
48623;SDS011;34422;45.802;16.114;2022-09-27T17:28:51;7.97;;;3.65;;
48623;SDS011;34422;45.802;16.114;2022-09-27T17:31:20;7.32;;;3.03;;
48623;SDS011;34422;45.802;16.114;2022-09-27T17:33:48;5.47;;;2.33;;
48623;SDS011;34422;45.802;16.114;2022-09-27T17:36:18;6.70;;;1.67;;
48623;SDS011;34422;45.802;16.114;2022-09-27T17:38:49;5.38;;;1.40;;
48623;SDS011;34422;45.802;16.114;2022-09-27T17:41:19;9.98;;;4.63;;
48623;SDS011;34422;45.802;16.114;2022-09-27T17:43:53;14.55;;;7.38;;
48623;SDS011;34422;45.802;16.114;2022-09-27T17:46:23;7.35;;;3.45;;
48623;SDS011;34422;45.802;16.114;2022-09-27T17:48:55;8.25;;;3.67;;
48623;SDS011;34422;45.802;16.114;2022-09-27T17:51:44;5.05;;;2.60;;
48623;SDS011;34422;45.802;16.114;2022-09-27T17:56:41;5.80;;;2.00;;
48623;SDS011;34422;45.802;16.114;2022-09-27T17:59:09;6.47;;;2.33;;
48623;SDS011;34422;45.802;16.114;2022-09-27T18:01:38;6.60;;;3.10;;
48623;SDS011;34422;45.802;16.114;2022-09-27T18:04:06;11.45;;;4.32;;
48623;SDS011;34422;45.802;16.114;2022-09-27T18:06:39;9.07;;;4.68;;
48623;SDS011;34422;45.802;16.114;2022-09-27T18:09:08;10.98;;;5.47;;
48623;SDS011;34422;45.802;16.114;2022-09-27T18:11:37;8.48;;;4.18;;
48623;SDS011;34422;45.802;16.114;2022-09-27T18:14:05;9.02;;;4.15;;
48623;SDS011;34422;45.802;16.114;2022-09-27T18:16:35;8.25;;;3.50;;